Time;durP1;ratioP1;P1;durP2;ratioP2;P2;SDS_P1;SDS_P2;PMS_P1;PMS_P2;Temp;Humidity;BMP_temperature;BMP_pressure;BME280_temperature;BME280_humidity;BME280_pressure;Samples;Min_cycle;Max_cycle;Signal;HPM_P1;HPM_P2
2023/08/23 00:04:44;;;;;;;6.50;2.70;;;;;;;19.07;62.24;100318.22;10387105;28;20056;-66
2023/08/23 00:09:46;;;;;;;6.25;3.38;;;;;;;18.99;62.26;100314.53;10385653;28;20746;-65
2023/08/23 00:14:48;;;;;;;4.32;2.72;;;;;;;18.97;62.52;100311.19;10391518;28;20049;-65
2023/08/23 00:19:50;;;;;;;5.00;2.70;;;;;;;18.92;62.26;100308.09;10386318;28;20458;-63
2023/08/23 00:24:52;;;;;;;7.95;3.08;;;;;;;18.77;62.42;100310.25;10390005;28;20168;-62
2023/08/23 00:29:54;;;;;;;5.15;3.03;;;;;;;18.45;62.74;100314.88;10385594;28;20394;-63
2023/08/23 00:34:56;;;;;;;4.47;2.78;;;;;;;18.38;62.79;100319.84;10390885;28;20052;-63
2023/08/23 00:39:58;;;;;;;5.05;3.15;;;;;;;18.53;63.22;100313.25;10390389;28;20498;-63
2023/08/23 00:45:00;;;;;;;7.13;3.40;;;;;;;18.56;63.11;100317.47;10401959;28;20049;-63
2023/08/23 00:50:03;;;;;;;9.77;2.90;;;;;;;18.55;62.72;100315.75;10388025;28;20112;-63
2023/08/23 00:55:05;;;;;;;6.35;3.00;;;;;;;18.45;63.10;100321.03;10384612;28;20052;-64
2023/08/23 01:00:08;;;;;;;6.32;3.15;;;;;;;18.39;63.44;100326.00;10388624;28;20077;-64
2023/08/23 01:05:11;;;;;;;7.70;3.20;;;;;;;18.34;63.48;100323.75;10386784;28;20416;-65
2023/08/23 01:10:27;;;;;;;6.20;3.13;;;;;;;18.33;63.80;100323.88;10391647;28;20432;-64
2023/08/23 01:15:31;;;;;;;5.82;2.63;;;;;;;18.31;63.60;100325.81;10383765;28;20053;-65
2023/08/23 01:20:34;;;;;;;12.30;3.70;;;;;;;18.30;63.12;100324.16;10386467;28;20045;-64
2023/08/23 01:25:36;;;;;;;4.20;3.03;;;;;;;18.26;63.44;100323.56;10385068;28;20432;-64
2023/08/23 01:30:39;;;;;;;4.60;2.85;;;;;;;18.14;63.86;100318.44;10402662;28;20409;-64
2023/08/23 01:36:04;;;;;;;9.95;2.88;;;;;;;18.20;64.45;100318.78;10422936;28;20051;-64
2023/08/23 01:41:06;;;;;;;5.00;2.60;;;;;;;18.26;63.46;100315.63;10392711;28;20045;-64
2023/08/23 01:46:09;;;;;;;10.85;3.17;;;;;;;18.21;63.08;100314.34;10402345;28;20045;-64
2023/08/23 01:51:11;;;;;;;4.03;2.90;;;;;;;18.12;63.50;100312.44;10397128;28;20056;-64
2023/08/23 01:56:14;;;;;;;6.00;2.67;;;;;;;18.07;63.61;100312.00;10388811;28;20524;-64
2023/08/23 02:01:16;;;;;;;7.72;3.17;;;;;;;17.99;63.54;100311.81;10426225;28;20080;-64
2023/08/23 02:06:18;;;;;;;6.65;2.95;;;;;;;17.91;63.37;100311.63;10401005;28;20115;-64
2023/08/23 02:11:20;;;;;;;5.95;3.08;;;;;;;17.85;63.66;100305.03;10399490;28;20041;-64
2023/08/23 02:16:22;;;;;;;4.18;2.65;;;;;;;17.82;64.09;100306.13;10402581;28;20493;-65
2023/08/23 02:21:24;;;;;;;7.57;3.88;;;;;;;17.84;63.64;100308.63;10398870;28;20046;-64
2023/08/23 02:26:27;;;;;;;5.70;2.85;;;;;;;17.70;63.77;100314.25;10401294;28;20046;-64
2023/08/23 02:31:29;;;;;;;4.63;3.10;;;;;;;17.62;63.90;100306.09;10399759;28;20041;-64
2023/08/23 02:36:31;;;;;;;5.63;3.30;;;;;;;17.53;64.55;100307.69;10398475;28;20265;-64
2023/08/23 02:41:35;;;;;;;4.32;2.50;;;;;;;17.63;64.14;100315.69;10414028;28;20049;-64
2023/08/23 02:46:37;;;;;;;5.78;2.47;;;;;;;17.59;64.27;100315.13;10397747;28;20162;-64
2023/08/23 02:51:40;;;;;;;8.07;3.03;;;;;;;17.48;64.57;100312.53;10398461;28;20095;-64
2023/08/23 02:56:44;;;;;;;4.68;2.90;;;;;;;17.49;64.60;100310.72;10396930;28;20152;-64
2023/08/23 03:01:46;;;;;;;4.75;2.75;;;;;;;17.45;64.02;100304.84;10401913;28;20152;-64
2023/08/23 03:06:48;;;;;;;4.38;2.83;;;;;;;17.43;64.25;100304.13;10406301;28;20053;-64
2023/08/23 03:11:50;;;;;;;6.28;3.50;;;;;;;17.41;64.18;100295.50;10389449;28;20057;-64
2023/08/23 03:16:52;;;;;;;5.25;2.80;;;;;;;17.32;63.97;100285.66;10383992;28;20415;-64
2023/08/23 03:21:55;;;;;;;4.50;2.90;;;;;;;17.15;64.40;100291.47;10401472;28;20177;-64
2023/08/23 03:26:57;;;;;;;4.25;2.80;;;;;;;17.13;64.53;100293.38;10390657;28;20065;-64
2023/08/23 03:31:59;;;;;;;4.20;3.05;;;;;;;17.02;64.61;100301.34;10389998;28;20046;-64
2023/08/23 03:37:01;;;;;;;6.63;3.40;;;;;;;16.99;64.49;100299.81;10390813;28;20057;-64
2023/08/23 03:42:04;;;;;;;5.85;3.42;;;;;;;17.02;64.44;100302.19;10393668;28;20513;-65
2023/08/23 03:47:06;;;;;;;4.78;3.05;;;;;;;16.93;64.68;100310.00;10394338;28;20575;-64
2023/08/23 03:52:07;;;;;;;5.15;3.08;;;;;;;16.88;64.94;100313.00;10389244;28;20046;-64
2023/08/23 03:57:09;;;;;;;4.55;2.60;;;;;;;16.87;65.26;100311.31;10393901;28;20044;-65
2023/08/23 04:02:12;;;;;;;4.85;2.88;;;;;;;16.92;65.09;100311.81;10388456;28;20041;-64
2023/08/23 04:07:15;;;;;;;5.38;3.10;;;;;;;16.88;65.22;100301.59;10394132;28;20924;-64
2023/08/23 04:12:18;;;;;;;4.53;2.70;;;;;;;16.95;65.19;100297.53;10395239;28;20087;-64
2023/08/23 04:17:20;;;;;;;4.80;2.92;;;;;;;17.00;65.10;100295.34;10388514;28;20417;-65
2023/08/23 04:22:22;;;;;;;4.68;3.15;;;;;;;17.00;65.07;100287.41;10420631;28;20060;-65
2023/08/23 04:27:24;;;;;;;4.28;2.88;;;;;;;16.95;65.29;100286.94;10397657;28;20485;-64
2023/08/23 04:32:26;;;;;;;4.45;2.80;;;;;;;16.96;65.06;100291.25;10402424;28;20136;-64
2023/08/23 04:37:28;;;;;;;4.45;3.10;;;;;;;16.90;65.48;100303.16;10391763;28;20131;-65
2023/08/23 04:42:34;;;;;;;4.88;3.10;;;;;;;16.90;65.54;100299.69;10385853;28;20577;-65
2023/08/23 04:47:37;;;;;;;23.95;4.00;;;;;;;16.95;65.41;100303.66;10391311;28;20064;-65
2023/08/23 04:52:39;;;;;;;5.68;3.03;;;;;;;16.97;65.53;100320.22;10389179;28;20041;-64
2023/08/23 04:57:43;;;;;;;6.22;3.00;;;;;;;16.97;65.17;100316.72;10400521;28;20857;-64
2023/08/23 05:02:45;;;;;;;4.78;2.72;;;;;;;16.91;65.49;100312.78;10385115;28;20037;-65
2023/08/23 05:07:49;;;;;;;6.93;3.20;;;;;;;17.06;65.32;100308.06;10387766;28;20041;-65
2023/08/23 05:12:52;;;;;;;11.40;3.05;;;;;;;17.20;64.75;100315.69;10401477;28;20155;-64
2023/08/23 05:17:54;;;;;;;6.53;2.72;;;;;;;17.30;64.49;100311.34;10401256;28;20072;-65
2023/08/23 05:22:56;;;;;;;5.95;2.70;;;;;;;17.46;64.60;100314.47;10404059;28;20043;-65
2023/08/23 05:27:59;;;;;;;4.07;2.78;;;;;;;17.48;64.33;100322.28;10428598;28;20042;-64
2023/08/23 05:33:01;;;;;;;4.35;2.92;;;;;;;17.55;64.27;100318.16;10395414;28;20064;-65
2023/08/23 05:38:03;;;;;;;14.93;3.45;;;;;;;17.45;64.33;100327.81;10404378;28;20407;-65
2023/08/23 05:43:06;;;;;;;5.53;3.00;;;;;;;17.50;63.88;100334.41;10393783;28;20501;-65
2023/08/23 05:48:08;;;;;;;8.73;3.05;;;;;;;17.53;64.06;100328.84;10397386;28;20175;-65
2023/08/23 05:53:18;;;;;;;3.97;2.58;;;;;;;17.81;63.55;100315.00;10401750;28;20029;-65
2023/08/23 05:58:20;;;;;;;3.87;2.67;;;;;;;18.22;62.55;100332.72;10393650;28;20040;-65
2023/08/23 06:03:22;;;;;;;3.63;2.47;;;;;;;18.47;61.82;100339.41;10393010;28;20483;-65
2023/08/23 06:08:24;;;;;;;3.78;2.70;;;;;;;18.78;61.43;100333.16;10397376;28;20041;-65
2023/08/23 06:13:27;;;;;;;3.63;2.55;;;;;;;18.92;60.75;100337.25;10397384;28;20537;-66
2023/08/23 06:18:29;;;;;;;6.28;2.58;;;;;;;19.16;60.50;100335.94;10401083;28;20052;-63
2023/08/23 06:23:31;;;;;;;4.38;2.85;;;;;;;19.12;60.44;100337.19;10396744;28;20059;-64
2023/08/23 06:28:33;;;;;;;3.30;2.42;;;;;;;19.16;60.57;100338.59;10396514;28;20037;-64
2023/08/23 06:33:35;;;;;;;4.15;2.85;;;;;;;19.31;59.98;100347.84;10394290;28;20096;-64
2023/08/23 06:38:37;;;;;;;4.65;2.88;;;;;;;19.47;59.82;100349.94;10403633;28;20049;-64
2023/08/23 06:43:39;;;;;;;3.97;2.65;;;;;;;19.85;59.24;100352.66;10394717;28;20537;-64
2023/08/23 06:48:41;;;;;;;5.60;2.88;;;;;;;20.10;58.97;100345.91;10394237;28;20060;-64
2023/08/23 06:53:43;;;;;;;4.00;2.63;;;;;;;20.05;58.80;100349.00;10396519;28;20030;-64
2023/08/23 06:58:45;;;;;;;4.45;2.78;;;;;;;20.17;58.25;100352.34;10390681;28;20065;-64
2023/08/23 07:03:47;;;;;;;5.43;3.40;;;;;;;20.32;58.00;100361.53;10409930;28;20411;-65
2023/08/23 07:08:50;;;;;;;4.88;3.00;;;;;;;20.34;58.18;100348.94;10397700;28;20036;-64
2023/08/23 07:13:52;;;;;;;4.65;2.90;;;;;;;19.88;58.65;100356.84;10389771;28;20045;-65
2023/08/23 07:18:54;;;;;;;5.40;2.88;;;;;;;19.82;59.29;100344.97;10393414;28;20052;-64
2023/08/23 07:23:56;;;;;;;4.57;2.75;;;;;;;19.78;59.07;100343.56;10397250;28;20046;-64
2023/08/23 07:28:58;;;;;;;4.38;2.60;;;;;;;19.90;59.16;100338.97;10425337;28;20170;-65
2023/08/23 07:34:00;;;;;;;4.70;2.90;;;;;;;19.89;59.54;100343.41;10402366;28;20054;-66
2023/08/23 07:39:03;;;;;;;3.70;2.45;;;;;;;20.19;59.21;100340.56;10392794;28;20041;-66
2023/08/23 07:44:05;;;;;;;3.28;2.25;;;;;;;21.42;57.33;100342.03;10386145;28;20123;-66
2023/08/23 07:49:07;;;;;;;4.65;2.53;;;;;;;22.43;55.32;100340.56;10392747;28;20044;-66
2023/08/23 07:54:09;;;;;;;5.13;2.65;;;;;;;23.22;53.68;100337.63;10388331;28;20041;-66
2023/08/23 07:59:11;;;;;;;6.35;2.60;;;;;;;23.63;52.71;100335.91;10384242;28;20041;-66
2023/08/23 08:04:13;;;;;;;4.40;2.10;;;;;;;24.34;51.43;100338.75;10383821;28;20494;-66
2023/08/23 08:09:15;;;;;;;3.95;2.40;;;;;;;24.70;50.27;100331.97;10384721;28;20057;-66
2023/08/23 08:14:17;;;;;;;5.43;2.20;;;;;;;25.01;49.72;100322.19;10383594;28;20049;-66
2023/08/23 08:19:20;;;;;;;5.68;2.15;;;;;;;25.49;49.02;100329.13;10390515;28;20041;-66
2023/08/23 08:24:22;;;;;;;4.25;2.40;;;;;;;25.36;48.27;100321.69;10392520;28;20498;-66
2023/08/23 08:29:24;;;;;;;4.05;2.13;;;;;;;25.23;48.29;100320.53;10385218;28;20056;-66
2023/08/23 08:34:27;;;;;;;6.03;2.33;;;;;;;25.64;47.65;100317.47;10382694;28;20523;-65
2023/08/23 08:39:29;;;;;;;3.15;2.05;;;;;;;26.48;46.43;100313.69;10384248;28;20060;-64
2023/08/23 08:44:32;;;;;;;4.40;2.10;;;;;;;26.77;45.80;100311.03;10391653;28;20107;-64
2023/08/23 08:49:34;;;;;;;3.58;2.20;;;;;;;27.02;45.14;100323.09;10385333;28;20053;-64
2023/08/23 08:54:36;;;;;;;6.22;2.20;;;;;;;27.13;44.54;100325.31;10379012;28;20044;-64
2023/08/23 08:59:40;;;;;;;6.35;2.80;;;;;;;27.09;44.47;100332.09;10394774;28;20038;-64
2023/08/23 09:04:46;;;;;;;4.53;2.60;;;;;;;27.02;44.16;100325.78;10391569;28;20045;-66
2023/08/23 09:09:48;;;;;;;3.60;2.60;;;;;;;26.88;44.21;100323.97;10392906;28;20092;-65
2023/08/23 09:14:50;;;;;;;4.95;3.20;;;;;;;26.88;44.13;100315.91;10410051;28;20136;-64
2023/08/23 09:19:52;;;;;;;5.22;2.97;;;;;;;26.95;43.13;100311.47;10391287;28;20322;-65
2023/08/23 09:24:55;;;;;;;4.00;2.47;;;;;;;26.62;43.18;100308.34;10389393;28;20063;-65
2023/08/23 09:29:58;;;;;;;4.75;2.90;;;;;;;26.81;42.21;100309.66;10392907;28;20148;-64
2023/08/23 09:35:11;;;;;;;6.30;2.80;;;;;;;26.94;39.42;100307.09;10390267;28;20044;-64
2023/08/23 09:40:19;;;;;;;3.58;1.88;;;;;;;27.21;38.70;100309.13;10389489;28;20057;-65
2023/08/23 09:45:23;;;;;;;5.00;2.07;;;;;;;27.24;37.93;100303.34;10390231;28;20033;-65
2023/08/23 09:50:28;;;;;;;3.55;2.13;;;;;;;27.10;39.85;100301.50;10388794;28;20143;-65
2023/08/23 09:55:31;;;;;;;7.88;2.17;;;;;;;27.65;39.26;100294.69;10424100;28;20045;-65
2023/08/23 10:00:33;;;;;;;2.92;2.00;;;;;;;27.54;39.28;100298.72;10387436;28;20731;-65
2023/08/23 10:05:36;;;;;;;3.40;2.13;;;;;;;27.61;39.49;100293.38;10373358;28;20437;-65
2023/08/23 10:10:42;;;;;;;4.28;1.90;;;;;;;27.83;37.26;100287.03;10390081;28;20046;-65
2023/08/23 10:15:44;;;;;;;2.65;1.50;;;;;;;27.80;38.31;100285.56;10388466;28;21104;-65
2023/08/23 10:20:46;;;;;;;4.40;2.00;;;;;;;27.44;37.23;100282.91;10386067;28;20048;-65
2023/08/23 10:25:48;;;;;;;4.38;1.90;;;;;;;27.38;37.85;100282.88;10390504;28;20489;-65
2023/08/23 10:30:52;;;;;;;4.22;1.67;;;;;;;27.56;38.15;100298.53;10387129;28;20052;-65
2023/08/23 10:36:05;;;;;;;2.83;1.90;;;;;;;27.13;38.61;100297.63;10389201;28;20041;-66
2023/08/23 10:41:17;;;;;;;4.32;1.73;;;;;;;27.24;37.89;100284.56;10386531;28;20049;-64
2023/08/23 10:46:22;;;;;;;3.38;1.52;;;;;;;27.18;38.35;100274.59;10388614;28;20402;-63
2023/08/23 10:51:24;;;;;;;2.72;1.75;;;;;;;27.04;38.52;100274.59;10392550;28;20043;-64
2023/08/23 10:56:28;;;;;;;2.80;1.40;;;;;;;26.81;39.66;100279.28;10388348;28;20863;-64
2023/08/23 11:01:30;;;;;;;2.97;1.60;;;;;;;26.63;38.44;100277.81;10429261;28;20612;-64
2023/08/23 11:06:32;;;;;;;3.20;1.63;;;;;;;26.59;39.99;100273.84;10405265;28;20080;-63
2023/08/23 11:11:34;;;;;;;2.95;1.55;;;;;;;26.89;39.96;100269.28;10393984;28;20464;-63
2023/08/23 11:16:38;;;;;;;3.58;1.42;;;;;;;26.96;39.66;100261.28;10394545;28;20128;-64
2023/08/23 11:21:41;;;;;;;3.45;1.30;;;;;;;27.12;39.57;100248.47;10426055;28;20049;-63
2023/08/23 11:26:43;;;;;;;3.13;1.50;;;;;;;27.05;39.43;100242.19;10390427;28;20315;-64
2023/08/23 11:31:53;;;;;;;3.97;1.60;;;;;;;27.05;38.02;100250.25;10424325;28;20049;-64
2023/08/23 11:36:55;;;;;;;2.80;1.40;;;;;;;27.07;38.61;100258.94;10391477;28;20517;-65
2023/08/23 11:41:58;;;;;;;2.97;1.48;;;;;;;27.31;39.22;100265.84;10392404;28;20560;-65
2023/08/23 11:47:00;;;;;;;2.47;1.40;;;;;;;27.47;39.10;100261.03;10390641;28;20768;-66
2023/08/23 11:52:02;;;;;;;2.03;1.10;;;;;;;27.74;38.09;100255.94;10392772;28;20128;-66
2023/08/23 11:57:04;;;;;;;1.30;1.13;;;;;;;27.68;36.99;100256.66;10390958;28;20182;-66
2023/08/23 12:02:07;;;;;;;2.00;1.30;;;;;;;27.46;37.11;100259.38;10392255;28;20047;-66
2023/08/23 12:07:09;;;;;;;2.65;1.30;;;;;;;27.61;36.39;100253.09;10403769;28;20665;-66
2023/08/23 12:12:11;;;;;;;4.00;1.20;;;;;;;27.45;36.30;100251.50;10405984;28;20053;-66
2023/08/23 12:17:13;;;;;;;2.72;1.15;;;;;;;27.23;35.40;100245.31;10422323;28;20195;-65
2023/08/23 12:22:15;;;;;;;3.17;1.60;;;;;;;27.30;36.13;100243.50;10387616;28;20514;-63
2023/08/23 12:27:17;;;;;;;1.10;1.00;;;;;;;27.56;36.34;100231.34;10389918;28;20485;-63
2023/08/23 12:32:20;;;;;;;3.05;1.10;;;;;;;27.71;36.51;100240.19;10389671;28;20053;-63
2023/08/23 12:37:22;;;;;;;3.60;1.25;;;;;;;27.58;36.03;100232.00;10389342;28;20408;-65
2023/08/23 12:42:24;;;;;;;2.85;1.30;;;;;;;27.93;36.67;100223.00;10400753;28;20565;-66
2023/08/23 12:47:26;;;;;;;2.88;1.20;;;;;;;28.13;36.12;100219.41;10389197;28;20049;-65
2023/08/23 12:52:28;;;;;;;2.47;1.30;;;;;;;28.16;36.22;100210.09;10387639;28;20046;-65
2023/08/23 12:57:32;;;;;;;3.38;1.40;;;;;;;28.12;35.58;100211.53;10393370;28;20301;-66
2023/08/23 13:02:35;;;;;;;2.38;1.20;;;;;;;28.13;35.79;100205.13;10386801;28;20048;-65
2023/08/23 13:07:37;;;;;;;3.45;1.35;;;;;;;28.33;35.37;100207.94;10387953;28;20109;-65
2023/08/23 13:12:39;;;;;;;3.45;1.50;;;;;;;28.19;35.59;100199.78;10390611;28;20136;-65
2023/08/23 13:17:41;;;;;;;1.70;1.13;;;;;;;28.17;35.24;100204.53;10395456;28;20549;-65
2023/08/23 13:22:43;;;;;;;2.67;1.50;;;;;;;28.29;35.44;100202.16;10386411;28;20049;-65
2023/08/23 13:27:45;;;;;;;1.50;1.05;;;;;;;28.10;35.07;100197.44;10400842;28;20048;-65
2023/08/23 13:32:48;;;;;;;2.78;1.20;;;;;;;28.08;35.31;100191.44;10389311;28;20573;-65
2023/08/23 13:37:50;;;;;;;2.08;1.40;;;;;;;28.07;35.40;100187.09;10387479;28;20099;-67
2023/08/23 13:42:53;;;;;;;2.45;1.17;;;;;;;28.13;35.02;100178.25;10403315;28;20072;-66
2023/08/23 13:48:14;;;;;;;2.72;1.13;;;;;;;28.01;34.59;100182.50;10395072;28;20521;-66
2023/08/23 13:53:16;;;;;;;1.63;1.20;;;;;;;28.24;34.48;100180.34;10394891;28;20042;-66
2023/08/23 13:58:19;;;;;;;1.60;1.23;;;;;;;28.37;33.86;100168.84;10394914;28;20037;-66
2023/08/23 14:03:20;;;;;;;1.23;1.00;;;;;;;28.47;33.72;100161.25;10395159;28;20094;-66
2023/08/23 14:08:22;;;;;;;1.13;0.98;;;;;;;28.57;32.97;100151.75;10394905;28;20041;-66
2023/08/23 14:13:24;;;;;;;2.00;1.15;;;;;;;28.67;33.45;100146.81;10397932;28;20052;-66
2023/08/23 14:18:26;;;;;;;2.15;1.20;;;;;;;28.68;33.06;100137.72;10394799;28;20555;-66
2023/08/23 14:23:28;;;;;;;1.92;1.30;;;;;;;28.74;33.83;100136.06;10392879;28;20575;-66
2023/08/23 14:28:31;;;;;;;2.83;1.00;;;;;;;28.50;32.82;100132.09;10393698;28;20702;-66
2023/08/23 14:33:32;;;;;;;1.55;0.93;;;;;;;28.49;33.35;100140.34;10392568;28;20049;-66
2023/08/23 14:38:35;;;;;;;2.15;1.15;;;;;;;28.74;33.35;100141.44;10392980;28;20073;-66
2023/08/23 14:43:37;;;;;;;2.63;1.00;;;;;;;28.86;33.35;100143.38;10400658;28;20243;-66
2023/08/23 14:48:39;;;;;;;1.75;0.95;;;;;;;28.92;33.36;100147.94;10398543;28;20127;-66
2023/08/23 14:53:43;;;;;;;1.77;1.00;;;;;;;28.82;33.56;100147.47;10394029;28;20053;-65
2023/08/23 14:58:47;;;;;;;3.60;1.33;;;;;;;28.58;32.92;100141.81;10421784;28;20049;-66
2023/08/23 15:03:48;;;;;;;2.28;1.02;;;;;;;28.50;32.45;100144.69;10393167;28;20501;-66
2023/08/23 15:08:50;;;;;;;2.45;1.00;;;;;;;28.56;33.08;100138.50;10406459;28;20080;-65
2023/08/23 15:13:52;;;;;;;1.70;0.95;;;;;;;28.60;33.13;100132.53;10394115;28;20052;-66
2023/08/23 15:18:54;;;;;;;1.98;1.20;;;;;;;28.59;32.90;100130.84;10397887;28;20582;-66
2023/08/23 15:23:56;;;;;;;3.42;1.05;;;;;;;28.63;32.19;100136.66;10404586;28;20613;-65
2023/08/23 15:28:59;;;;;;;2.13;0.95;;;;;;;28.69;32.34;100133.97;10385711;28;20136;-65
2023/08/23 15:34:06;;;;;;;1.03;0.90;;;;;;;28.50;32.57;100140.16;10389737;28;20049;-62
2023/08/23 15:39:09;;;;;;;1.80;1.00;;;;;;;28.71;32.93;100131.06;10395287;28;20122;-62
2023/08/23 15:44:10;;;;;;;2.47;1.10;;;;;;;28.85;32.92;100130.94;10391169;28;20061;-61
2023/08/23 15:49:13;;;;;;;4.32;0.90;;;;;;;28.90;32.52;100120.41;10388635;28;20528;-62
2023/08/23 15:54:15;;;;;;;1.90;0.90;;;;;;;28.66;32.35;100125.50;10390704;28;20482;-61
2023/08/23 15:59:18;;;;;;;1.38;1.00;;;;;;;28.39;31.50;100124.59;10386627;28;20502;-65
2023/08/23 16:04:20;;;;;;;1.65;0.98;;;;;;;28.52;31.78;100104.97;10385503;28;20048;-65
2023/08/23 16:09:22;;;;;;;4.35;1.13;;;;;;;28.59;31.85;100106.63;10381644;28;20050;-64
2023/08/23 16:14:27;;;;;;;2.90;1.17;;;;;;;28.68;32.40;100102.72;10387939;28;20049;-65
2023/08/23 16:19:29;;;;;;;2.55;0.95;;;;;;;28.65;32.21;100104.97;10383683;28;20473;-64
2023/08/23 16:24:31;;;;;;;2.47;1.20;;;;;;;28.62;32.21;100098.16;10388107;28;20051;-64
2023/08/23 16:29:33;;;;;;;2.90;1.25;;;;;;;28.55;31.99;100097.31;10392431;28;20034;-65
2023/08/23 16:34:35;;;;;;;1.50;0.95;;;;;;;28.45;32.16;100102.25;10390892;28;20049;-65
2023/08/23 16:39:37;;;;;;;2.30;1.30;;;;;;;28.55;31.85;100105.38;10381808;28;20033;-65
2023/08/23 16:44:39;;;;;;;2.00;1.05;;;;;;;28.57;32.67;100102.47;10385099;28;20049;-65
2023/08/23 16:49:41;;;;;;;1.45;0.95;;;;;;;28.59;32.68;100095.88;10383932;28;20061;-65
2023/08/23 16:54:43;;;;;;;3.42;1.08;;;;;;;28.56;32.19;100098.16;10381185;28;20375;-65
2023/08/23 16:59:45;;;;;;;1.33;0.88;;;;;;;28.50;32.49;100107.88;10384754;28;20061;-64
2023/08/23 17:04:47;;;;;;;3.67;1.20;;;;;;;28.25;32.46;100099.47;10391184;28;20387;-65
2023/08/23 17:09:51;;;;;;;4.05;1.17;;;;;;;28.03;32.52;100102.47;10416244;28;20049;-65
2023/08/23 17:14:53;;;;;;;2.70;1.05;;;;;;;27.87;32.34;100094.75;10386497;28;20513;-65
2023/08/23 17:19:57;;;;;;;1.70;1.20;;;;;;;27.65;33.46;100099.34;10390538;28;20520;-65
2023/08/23 17:25:00;;;;;;;1.63;1.10;;;;;;;27.44;33.64;100092.16;10392462;28;20639;-64
2023/08/23 17:30:04;;;;;;;2.70;1.00;;;;;;;27.39;34.09;100091.94;10392129;28;20285;-65
2023/08/23 17:35:09;;;;;;;2.58;1.10;;;;;;;27.25;34.50;100079.44;10396155;28;20139;-65
2023/08/23 17:40:13;;;;;;;3.75;0.98;;;;;;;26.95;35.19;100091.34;10392975;28;20054;-65
2023/08/23 17:45:16;;;;;;;2.65;1.10;;;;;;;26.69;36.10;100088.41;10391260;28;20076;-65
2023/08/23 17:50:18;;;;;;;2.88;1.30;;;;;;;26.52;37.16;100093.19;10394851;28;20052;-65
2023/08/23 17:55:20;;;;;;;2.53;1.10;;;;;;;26.46;38.21;100101.16;10395357;28;20038;-65
2023/08/23 18:00:22;;;;;;;2.58;1.17;;;;;;;26.36;38.81;100109.50;10395650;28;20596;-65
2023/08/23 18:05:27;;;;;;;2.15;1.27;;;;;;;26.11;39.83;100107.31;10395377;28;20119;-64
2023/08/23 18:10:29;;;;;;;3.13;1.08;;;;;;;25.72;39.87;100099.53;10397004;28;20556;-65
2023/08/23 18:15:31;;;;;;;3.80;1.50;;;;;;;25.51;40.71;100108.31;10393784;28;20053;-65
2023/08/23 18:20:33;;;;;;;1.25;1.00;;;;;;;25.30;41.63;100110.84;10393012;28;20293;-64
2023/08/23 18:25:35;;;;;;;2.22;1.30;;;;;;;25.06;42.56;100114.56;10395622;28;20796;-64
2023/08/23 18:30:38;;;;;;;1.67;1.02;;;;;;;24.82;43.29;100119.25;10390561;28;20124;-65
2023/08/23 18:35:41;;;;;;;3.00;1.20;;;;;;;24.56;43.87;100126.75;10390900;28;20493;-64
2023/08/23 18:40:43;;;;;;;2.60;1.27;;;;;;;24.31;44.40;100115.38;10393233;28;20401;-65
2023/08/23 18:45:46;;;;;;;2.03;1.17;;;;;;;24.13;44.84;100137.00;10392881;28;20766;-66
2023/08/23 18:50:48;;;;;;;2.33;1.20;;;;;;;23.93;45.24;100145.56;10391983;28;20045;-66
2023/08/23 18:55:50;;;;;;;3.40;1.20;;;;;;;23.68;46.08;100150.13;10405898;28;20148;-63
2023/08/23 19:00:57;;;;;;;2.42;1.63;;;;;;;23.46;47.34;100145.50;10430029;28;20511;-66
2023/08/23 19:06:00;;;;;;;2.25;1.13;;;;;;;23.30;47.38;100159.69;10391505;28;20050;-65
2023/08/23 19:11:02;;;;;;;1.83;1.00;;;;;;;23.08;47.84;100156.84;10392511;28;20148;-65
2023/08/23 19:16:05;;;;;;;3.13;1.30;;;;;;;22.92;48.28;100172.84;10391308;28;20046;-66
2023/08/23 19:21:08;;;;;;;2.45;1.50;;;;;;;22.84;48.69;100172.81;10389802;28;20448;-65
2023/08/23 19:26:11;;;;;;;2.78;1.40;;;;;;;22.73;49.07;100183.75;10398559;28;20400;-65
2023/08/23 19:31:13;;;;;;;2.83;1.38;;;;;;;22.44;49.82;100181.50;10392916;28;20500;-63
2023/08/23 19:36:16;;;;;;;2.15;1.17;;;;;;;22.30;50.26;100193.63;10392525;28;20520;-64
2023/08/23 19:41:18;;;;;;;2.17;1.30;;;;;;;22.05;50.69;100191.81;10390343;28;20127;-64
2023/08/23 19:46:21;;;;;;;5.50;1.70;;;;;;;21.93;51.39;100198.38;10389025;28;20049;-64
2023/08/23 19:51:23;;;;;;;4.10;1.65;;;;;;;21.84;51.34;100200.16;10401494;28;20084;-64
2023/08/23 19:56:26;;;;;;;2.15;1.15;;;;;;;21.74;51.86;100195.94;10397926;28;20049;-65
2023/08/23 20:01:29;;;;;;;2.53;1.30;;;;;;;21.73;51.72;100181.78;10391036;28;20034;-64
2023/08/23 20:06:32;;;;;;;2.47;1.30;;;;;;;21.70;51.95;100187.41;10389017;28;20133;-65
2023/08/23 20:11:35;;;;;;;1.60;1.20;;;;;;;21.58;52.39;100188.66;10386460;28;20060;-63
2023/08/23 20:16:38;;;;;;;3.03;1.33;;;;;;;21.60;52.22;100191.16;10390604;28;20053;-63
2023/08/23 20:21:40;;;;;;;6.30;1.48;;;;;;;21.36;53.03;100186.50;10389423;28;20408;-63
2023/08/23 20:26:43;;;;;;;1.92;1.25;;;;;;;21.14;53.62;100178.13;10389924;28;20045;-64
2023/08/23 20:31:45;;;;;;;4.93;1.27;;;;;;;20.93;54.15;100184.59;10389074;28;20041;-63
2023/08/23 20:36:47;;;;;;;2.88;1.40;;;;;;;20.73;54.52;100188.38;10388000;28;20592;-63
2023/08/23 20:41:52;;;;;;;4.32;1.52;;;;;;;20.68;54.51;100185.31;10389040;28;20038;-65
2023/08/23 20:46:54;;;;;;;4.03;1.40;;;;;;;20.67;54.44;100175.69;10398836;28;20057;-64
2023/08/23 20:51:56;;;;;;;1.77;1.23;;;;;;;20.71;54.57;100182.38;10391296;28;20045;-64
2023/08/23 20:56:58;;;;;;;4.97;1.40;;;;;;;20.70;54.23;100175.38;10414692;28;20041;-64
2023/08/23 21:02:01;;;;;;;4.93;1.30;;;;;;;20.62;54.43;100183.25;10403276;28;20045;-64
2023/08/23 21:07:03;;;;;;;1.75;1.23;;;;;;;20.51;54.97;100172.84;10401714;28;20069;-64
2023/08/23 21:12:05;;;;;;;2.88;1.58;;;;;;;20.56;54.86;100178.50;10405553;28;20053;-64
2023/08/23 21:17:07;;;;;;;8.80;1.98;;;;;;;20.49;55.04;100177.47;10407309;28;20055;-65
2023/08/23 21:22:09;;;;;;;2.28;1.30;;;;;;;20.27;55.21;100183.16;10397226;28;20046;-64
2023/08/23 21:27:11;;;;;;;2.92;1.40;;;;;;;20.06;56.03;100179.91;10401331;28;20424;-64
2023/08/23 21:32:14;;;;;;;2.72;1.30;;;;;;;20.18;55.56;100173.41;10396698;28;20053;-64
2023/08/23 21:37:16;;;;;;;4.00;1.65;;;;;;;20.13;56.10;100171.19;10397390;28;20045;-64
2023/08/23 21:42:17;;;;;;;7.20;1.80;;;;;;;19.99;56.34;100176.19;10401081;28;20497;-64
2023/08/23 21:47:19;;;;;;;3.13;1.40;;;;;;;19.94;56.49;100176.59;10407092;28;20144;-64
2023/08/23 21:52:22;;;;;;;2.25;1.25;;;;;;;19.91;56.57;100179.53;10396158;28;20045;-64
2023/08/23 21:57:24;;;;;;;2.90;1.33;;;;;;;19.82;56.56;100172.47;10407010;28;20307;-64
2023/08/23 22:02:26;;;;;;;2.10;1.10;;;;;;;19.65;57.28;100172.31;10390928;28;20053;-64
2023/08/23 22:07:28;;;;;;;2.40;1.30;;;;;;;19.58;57.51;100173.88;10407638;28;20553;-64
2023/08/23 22:12:30;;;;;;;2.92;1.30;;;;;;;19.50;57.77;100163.16;10394930;28;20057;-64
2023/08/23 22:17:32;;;;;;;2.72;1.60;;;;;;;19.36;58.06;100167.91;10404373;28;20056;-64
2023/08/23 22:22:34;;;;;;;4.95;1.85;;;;;;;19.34;58.06;100167.22;10393231;28;20103;-64
2023/08/23 22:27:35;;;;;;;4.03;1.48;;;;;;;19.33;58.09;100170.84;10392767;28;20045;-64
2023/08/23 22:32:37;;;;;;;2.20;1.25;;;;;;;19.32;58.08;100179.78;10395632;28;20041;-64
2023/08/23 22:37:39;;;;;;;2.78;1.23;;;;;;;19.27;57.94;100166.13;10392364;28;20588;-64
2023/08/23 22:42:41;;;;;;;3.30;1.38;;;;;;;18.94;58.56;100152.41;10395395;28;20065;-64
2023/08/23 22:47:43;;;;;;;2.85;1.60;;;;;;;18.89;58.80;100152.81;10398624;28;20050;-64
2023/08/23 22:52:45;;;;;;;3.65;1.50;;;;;;;19.00;58.63;100160.66;10391243;28;20176;-64
2023/08/23 22:57:47;;;;;;;3.00;1.50;;;;;;;18.98;59.01;100161.75;10397871;28;20049;-64
2023/08/23 23:02:50;;;;;;;2.40;1.17;;;;;;;18.92;59.04;100164.97;10393769;28;20046;-64
2023/08/23 23:07:52;;;;;;;3.22;1.30;;;;;;;18.84;59.36;100154.22;10393044;28;20580;-64
2023/08/23 23:12:54;;;;;;;5.88;1.42;;;;;;;18.76;59.44;100154.91;10390757;28;20140;-64